Time;durP1;ratioP1;P1;durP2;ratioP2;P2;SDS_P1;SDS_P2;PMS_P1;PMS_P2;Temp;Humidity;BMP_temperature;BMP_pressure;BME280_temperature;BME280_humidity;BME280_pressure;Samples;Min_cycle;Max_cycle;Signal;HPM_P1;HPM_P2
2022/05/14 00:00:53;;;;;;;7.50;3.63;;;8.10;99.90;;;;;;4958032;28;20089;-78
2022/05/14 00:03:19;;;;;;;9.43;3.83;;;8.10;99.90;;;;;;4971424;28;20030;-78
2022/05/14 00:05:44;;;;;;;11.93;4.28;;;8.00;99.90;;;;;;4971257;28;20557;-78
2022/05/14 00:08:12;;;;;;;12.38;4.30;;;8.00;99.90;;;;;;4971886;28;20158;-78
2022/05/14 00:13:24;;;;;;;11.57;4.50;;;7.90;99.90;;;;;;4971475;28;20085;-79
2022/05/14 00:15:51;;;;;;;8.55;4.18;;;7.90;99.90;;;;;;4971106;28;20031;-77
2022/05/14 00:18:19;;;;;;;8.50;3.25;;;7.90;99.90;;;;;;4971627;28;20468;-77
2022/05/14 00:20:45;;;;;;;9.60;3.30;;;7.90;99.90;;;;;;4971057;28;20030;-77
2022/05/14 00:23:10;;;;;;;4.97;3.17;;;7.80;99.90;;;;;;4971411;28;20023;-77
2022/05/14 00:25:37;;;;;;;9.57;3.35;;;7.70;99.90;;;;;;4971374;28;20399;-77
2022/05/14 00:28:03;;;;;;;7.95;2.63;;;7.60;99.90;;;;;;4966602;28;20049;-77
2022/05/14 00:30:31;;;;;;;5.07;2.10;;;7.50;99.90;;;;;;4970414;28;20078;-77
2022/05/14 00:32:57;;;;;;;9.18;3.83;;;7.50;99.90;;;;;;4971109;28;20011;-77
2022/05/14 00:35:23;;;;;;;8.18;2.85;;;7.40;99.90;;;;;;4971537;28;20031;-77
2022/05/14 00:37:49;;;;;;;6.97;2.55;;;7.40;99.90;;;;;;4953751;28;20036;-77
2022/05/14 01:39:48;;;;;;;5.22;2.65;;;6.80;99.90;;;;;;5532946;23;20049;-78
2022/05/14 01:42:13;;;;;;;5.55;2.72;;;6.70;99.90;;;;;;5016149;28;20025;-79
2022/05/14 01:44:40;;;;;;;7.07;2.50;;;6.70;99.90;;;;;;5034119;28;20041;-79
2022/05/14 01:47:06;;;;;;;7.45;2.83;;;6.60;99.90;;;;;;5034116;28;20021;-79
2022/05/14 01:49:32;;;;;;;9.45;3.17;;;6.60;99.90;;;;;;5025359;28;20569;-79
2022/05/14 01:51:57;;;;;;;9.02;3.00;;;6.60;99.90;;;;;;5013098;28;20077;-79
2022/05/14 01:54:23;;;;;;;12.20;3.72;;;6.60;99.90;;;;;;5014136;28;20030;-78
2022/05/14 01:56:49;;;;;;;9.45;3.83;;;6.70;99.90;;;;;;5013860;28;20044;-78
2022/05/14 01:59:15;;;;;;;10.30;3.28;;;6.60;99.90;;;;;;5013051;28;20485;-78
2022/05/14 02:01:40;;;;;;;8.25;2.72;;;6.60;99.90;;;;;;5020504;28;20021;-79
2022/05/14 02:04:12;;;;;;;9.63;3.95;;;6.50;99.90;;;;;;5013416;28;20045;-79
2022/05/14 02:06:39;;;;;;;10.13;3.45;;;6.50;99.90;;;;;;4996041;28;20041;-79
2022/05/14 02:09:12;;;;;;;6.60;2.80;;;6.50;99.90;;;;;;5013379;28;20014;-79
2022/05/14 02:11:40;;;;;;;9.10;3.33;;;6.40;99.90;;;;;;5013430;28;20072;-76
2022/05/14 02:14:06;;;;;;;8.13;3.20;;;6.40;99.90;;;;;;5013108;28;20364;-78
2022/05/14 02:16:32;;;;;;;7.45;3.38;;;6.30;99.90;;;;;;5013479;28;20090;-78
2022/05/14 02:18:58;;;;;;;16.23;5.57;;;6.20;99.90;;;;;;5013201;28;20105;-78
2022/05/14 02:21:24;;;;;;;17.67;5.30;;;6.20;99.90;;;;;;5013350;28;20085;-79
2022/05/14 02:23:54;;;;;;;19.20;5.50;;;6.20;99.90;;;;;;5013120;28;20022;-79
2022/05/14 02:26:19;;;;;;;16.17;5.80;;;6.20;99.90;;;;;;5012740;28;20033;-79
2022/05/14 02:28:45;;;;;;;16.00;5.63;;;6.10;99.90;;;;;;5013411;28;20014;-79
2022/05/14 02:31:11;;;;;;;12.93;4.85;;;6.10;99.90;;;;;;5013394;28;20092;-79
2022/05/14 02:33:38;;;;;;;13.27;4.53;;;6.10;99.90;;;;;;4995492;28;20018;-79
2022/05/14 02:36:07;;;;;;;12.10;3.70;;;6.10;99.90;;;;;;5013433;28;20483;-79
2022/05/14 03:40:50;;;;;;;10.38;4.20;;;6.10;99.90;;;;;;5078455;23;20058;-77
2022/05/14 03:43:16;;;;;;;10.82;3.88;;;6.10;99.90;;;;;;4972984;28;20030;-79
2022/05/14 03:45:42;;;;;;;7.38;3.65;;;6.00;99.90;;;;;;4973020;28;20455;-78
2022/05/14 03:48:08;;;;;;;8.57;3.63;;;6.00;99.90;;;;;;4973071;28;20027;-78
2022/05/14 03:50:34;;;;;;;9.07;3.97;;;6.00;99.90;;;;;;4973060;28;20026;-78
2022/05/14 03:53:00;;;;;;;7.20;3.08;;;6.00;99.90;;;;;;4973049;28;20019;-79
2022/05/14 03:55:26;;;;;;;11.63;3.67;;;6.00;99.90;;;;;;4972596;28;20033;-78
2022/05/14 03:57:52;;;;;;;9.48;3.70;;;6.00;99.90;;;;;;4975727;28;20026;-78
2022/05/14 04:00:19;;;;;;;9.40;3.40;;;6.10;99.90;;;;;;4975901;28;20029;-78
2022/05/14 04:02:45;;;;;;;8.18;3.55;;;6.10;99.90;;;;;;4973084;28;20027;-78
2022/05/14 04:05:13;;;;;;;10.80;3.78;;;6.10;99.90;;;;;;4972485;28;20130;-78
2022/05/14 04:07:40;;;;;;;10.55;4.10;;;6.00;99.90;;;;;;4973013;28;20027;-78
2022/05/14 04:10:08;;;;;;;12.50;4.55;;;6.10;99.90;;;;;;4972209;28;20105;-78
2022/05/14 04:12:33;;;;;;;8.18;4.53;;;6.10;99.90;;;;;;4965925;28;20022;-78
2022/05/14 04:14:59;;;;;;;12.73;4.25;;;6.20;99.90;;;;;;4972432;28;20097;-78
2022/05/14 04:17:25;;;;;;;11.98;4.15;;;6.20;99.90;;;;;;4955200;28;20034;-77
2022/05/14 04:19:51;;;;;;;6.88;3.13;;;6.20;99.90;;;;;;4972346;28;20023;-78
2022/05/14 04:22:17;;;;;;;6.03;2.85;;;6.30;99.90;;;;;;4972283;28;20015;-78
2022/05/14 04:24:42;;;;;;;9.30;4.20;;;6.30;99.90;;;;;;4954993;28;20447;-77
2022/05/14 04:27:08;;;;;;;6.30;3.13;;;6.30;99.90;;;;;;4972618;28;20522;-78
2022/05/14 04:29:34;;;;;;;7.10;3.53;;;6.30;99.90;;;;;;4972076;28;20054;-78
2022/05/14 04:32:00;;;;;;;5.45;2.85;;;6.20;99.90;;;;;;4972528;28;20027;-78
2022/05/14 04:34:25;;;;;;;11.20;3.28;;;6.20;99.90;;;;;;4972406;28;20099;-78
2022/05/14 04:36:51;;;;;;;9.75;3.50;;;6.30;99.90;;;;;;4974208;28;20027;-76
2022/05/14 05:38:53;;;;;;;6.50;2.83;;;8.30;99.90;;;;;;6073815;23;20006;-78
2022/05/14 05:41:22;;;;;;;3.88;2.70;;;8.50;99.90;;;;;;4972745;28;20043;-78
2022/05/14 05:43:48;;;;;;;5.80;2.40;;;8.60;99.90;;;;;;4975331;28;20034;-78
2022/05/14 05:46:14;;;;;;;5.82;3.10;;;8.70;99.90;;;;;;4974859;28;20023;-78
2022/05/14 05:48:42;;;;;;;3.90;2.67;;;8.90;99.90;;;;;;4974191;28;20379;-78
2022/05/14 05:51:08;;;;;;;9.30;3.17;;;9.00;99.90;;;;;;4974868;28;20105;-78
2022/05/14 05:59:04;;;;;;;5.63;3.08;;;9.30;99.90;;;;;;4968975;28;20118;-78
2022/05/14 06:01:31;;;;;;;5.82;3.00;;;9.60;99.90;;;;;;4974449;28;20037;-78
2022/05/14 06:03:56;;;;;;;7.82;3.15;;;9.80;99.90;;;;;;4974688;28;20092;-78
2022/05/14 06:06:22;;;;;;;4.72;2.65;;;9.90;99.90;;;;;;4974600;28;20476;-78
2022/05/14 06:08:48;;;;;;;8.25;2.83;;;10.10;99.90;;;;;;4981092;28;20468;-78
2022/05/14 06:11:14;;;;;;;9.95;2.70;;;10.30;99.90;;;;;;4974391;28;20720;-78
2022/05/14 06:13:42;;;;;;;4.80;2.47;;;10.50;99.90;;;;;;4974618;28;20081;-79
2022/05/14 06:16:09;;;;;;;5.75;2.35;;;10.70;99.90;;;;;;4968244;28;20015;-78
2022/05/14 06:18:34;;;;;;;9.40;2.72;;;10.80;99.90;;;;;;4974454;28;20023;-79
2022/05/14 06:21:00;;;;;;;5.15;2.25;;;11.00;99.90;;;;;;4974348;28;20015;-79
2022/05/14 06:23:26;;;;;;;4.43;2.20;;;11.20;99.90;;;;;;4974515;28;20062;-78
2022/05/14 06:25:52;;;;;;;8.35;2.95;;;11.50;99.90;;;;;;4974194;28;20034;-79
2022/05/14 06:28:18;;;;;;;5.70;2.65;;;11.50;99.90;;;;;;4974620;28;20027;-79
2022/05/14 06:30:44;;;;;;;9.95;3.30;;;11.70;99.90;;;;;;4974156;28;20106;-79
2022/05/14 06:33:11;;;;;;;6.38;3.28;;;11.90;99.90;;;;;;4974377;28;20106;-78
2022/05/14 06:35:38;;;;;;;7.50;2.85;;;12.00;99.90;;;;;;4974010;28;20054;-78
2022/05/14 06:38:06;;;;;;;5.65;2.78;;;12.10;99.90;;;;;;4974010;28;20022;-78
2022/05/14 07:40:12;;;;;;;7.45;2.15;;;13.40;99.90;;;;;;5547775;22;20499;-76
2022/05/14 07:42:39;;;;;;;;;;;13.40;99.90;;;;;;4973038;28;20066;-77
2022/05/14 07:45:08;;;;;;;6.43;1.85;;;13.40;99.90;;;;;;4972254;28;19977;-76
2022/05/14 07:47:35;;;;;;;5.18;1.77;;;13.40;99.90;;;;;;4972571;28;20031;-77
2022/05/14 07:50:03;;;;;;;8.15;3.22;;;13.50;99.90;;;;;;4970786;28;20551;-76
2022/05/14 07:52:29;;;;;;;4.35;2.70;;;13.50;99.90;;;;;;4963916;28;20066;-76
2022/05/14 07:54:55;;;;;;;5.57;3.38;;;13.60;99.90;;;;;;4970888;28;20062;-77
2022/05/14 07:57:21;;;;;;;11.65;2.95;;;13.90;99.90;;;;;;4970862;28;20030;-76
2022/05/14 07:59:47;;;;;;;8.10;2.88;;;14.10;99.90;;;;;;4959377;28;20033;-76
2022/05/14 08:02:34;;;;;;;8.77;2.78;;;14.30;99.90;;;;;;4971255;28;20034;-76
2022/05/14 08:05:11;;;;;;;5.45;2.33;;;14.40;99.90;;;;;;4970913;28;20037;-76
2022/05/14 08:07:37;;;;;;;10.05;2.92;;;14.40;99.90;;;;;;4970620;28;20077;-77
2022/05/14 08:10:06;;;;;;;7.55;2.45;;;14.50;99.90;;;;;;4968490;28;20125;-77
2022/05/14 08:12:41;;;;;;;7.15;3.03;;;14.60;99.90;;;;;;4971347;28;20035;-76
2022/05/14 08:15:08;;;;;;;5.55;2.10;;;14.60;99.90;;;;;;4969375;28;20059;-77
2022/05/14 08:17:34;;;;;;;10.02;2.60;;;14.70;99.90;;;;;;4955745;28;20023;-76
2022/05/14 08:20:00;;;;;;;7.10;2.30;;;14.80;99.90;;;;;;4970787;28;20395;-77
2022/05/14 08:25:10;;;;;;;14.00;2.20;;;15.00;99.90;;;;;;4957805;28;20069;-76
2022/05/14 08:27:44;;;;;;;5.95;2.70;;;15.10;99.90;;;;;;4969490;28;20058;-77
2022/05/14 08:30:32;;;;;;;5.53;2.05;;;15.20;99.90;;;;;;4964900;28;20034;-76
2022/05/14 08:32:59;;;;;;;6.35;1.00;;;15.30;99.90;;;;;;4970717;28;20093;-77
2022/05/14 08:35:26;;;;;;;6.18;1.80;;;15.30;99.90;;;;;;4971389;28;20082;-77
2022/05/14 08:37:54;;;;;;;5.63;2.13;;;15.60;99.90;;;;;;4971175;28;20098;-76
2022/05/14 09:39:57;;;;;;;1.98;0.68;;;26.80;52.80;;;;;;5718736;22;20043;-77
2022/05/14 09:42:47;;;;;;;4.55;1.35;;;26.90;52.70;;;;;;4975188;28;20034;-77
2022/05/14 09:45:32;;;;;;;4.93;1.20;;;27.10;50.20;;;;;;4957952;28;20495;-78
2022/05/14 09:48:19;;;;;;;3.33;0.98;;;27.60;50.70;;;;;;4975130;28;20019;-78
2022/05/14 09:50:47;;;;;;;3.50;0.70;;;28.10;49.50;;;;;;4974829;28;20019;-78
2022/05/14 09:53:25;;;;;;;2.92;0.80;;;28.70;46.60;;;;;;4974892;28;20042;-78
2022/05/14 09:56:06;;;;;;;5.05;1.50;;;29.30;47.10;;;;;;4974733;28;20031;-78
2022/05/14 09:58:56;;;;;;;2.35;1.05;;;29.20;44.20;;;;;;4974140;28;20558;-79
2022/05/14 10:01:28;;;;;;;2.97;1.23;;;29.50;45.70;;;;;;4974629;28;20106;-78
2022/05/14 10:04:06;;;;;;;6.63;2.03;;;29.20;44.20;;;;;;4975103;28;20337;-78
2022/05/14 10:06:47;;;;;;;4.32;0.80;;;29.30;44.80;;;;;;4975392;28;20448;-78
2022/05/14 10:09:20;;;;;;;3.70;0.88;;;29.40;43.70;;;;;;4974657;28;20037;-77
2022/05/14 10:12:06;;;;;;;6.10;0.75;;;29.00;44.60;;;;;;4974455;28;20531;-78
2022/05/14 10:14:54;;;;;;;3.70;0.80;;;28.90;43.30;;;;;;4974613;28;20035;-79
2022/05/14 10:17:52;;;;;;;4.82;0.98;;;28.90;43.60;;;;;;4970435;28;20023;-78
2022/05/14 10:20:33;;;;;;;2.50;0.65;;;29.50;43.60;;;;;;4969906;28;20059;-78
2022/05/14 10:29:24;;;;;;;4.25;0.82;;;30.90;39.20;;;;;;4974281;28;20041;-80
2022/05/14 10:31:53;;;;;;;1.50;0.90;;;30.80;40.50;;;;;;4974479;28;20098;-80
2022/05/14 10:34:29;;;;;;;6.97;1.17;;;31.00;39.60;;;;;;4967618;28;20035;-78
2022/05/14 10:36:58;;;;;;;5.85;1.08;;;30.60;39.60;;;;;;4974202;28;20019;-79
2022/05/14 11:41:38;;;;;;;2.17;0.57;;;33.30;33.20;;;;;;4987764;28;20046;-79
2022/05/14 11:44:06;;;;;;;5.28;1.23;;;33.10;35.30;;;;;;4991403;28;20027;-78
2022/05/14 11:46:40;;;;;;;4.32;0.90;;;33.20;35.30;;;;;;4991514;28;20021;-78
2022/05/14 11:49:37;;;;;;;5.85;1.23;;;33.70;34.30;;;;;;4992037;28;20088;-79
2022/05/14 11:52:12;;;;;;;3.38;0.73;;;34.20;32.80;;;;;;4973028;28;20022;-80
2022/05/14 11:54:42;;;;;;;3.05;0.60;;;34.50;32.40;;;;;;4972754;28;20488;-79
2022/05/14 11:57:27;;;;;;;5.97;1.20;;;33.40;32.60;;;;;;4972695;28;20029;-78
2022/05/14 12:00:20;;;;;;;3.53;1.10;;;33.90;34.80;;;;;;4971282;28;20026;-78
2022/05/14 12:02:51;;;;;;;3.85;1.00;;;34.70;33.00;;;;;;4968594;28;20602;-79
2022/05/14 12:05:40;;;;;;;4.63;1.20;;;35.20;32.80;;;;;;4972685;28;20085;-78
2022/05/14 12:08:31;;;;;;;3.75;1.00;;;35.40;32.60;;;;;;4972369;28;20427;-78
2022/05/14 12:11:18;;;;;;;5.38;0.93;;;34.40;33.00;;;;;;4972549;28;20564;-78
2022/05/14 12:13:49;;;;;;;5.10;1.52;;;34.10;32.80;;;;;;4972515;28;20027;-79
2022/05/14 12:16:16;;;;;;;3.15;0.80;;;33.90;35.30;;;;;;4972416;28;20062;-78
2022/05/14 12:18:43;;;;;;;4.05;0.82;;;34.20;34.30;;;;;;4972429;28;20101;-78
2022/05/14 12:21:10;;;;;;;5.68;0.98;;;34.70;30.90;;;;;;4972403;28;20054;-78
2022/05/14 12:23:45;;;;;;;3.55;0.88;;;35.20;31.80;;;;;;4971594;28;20023;-78
2022/05/14 12:26:29;;;;;;;3.90;0.98;;;36.00;31.10;;;;;;4966716;28;20031;-78
2022/05/14 12:28:59;;;;;;;4.03;0.80;;;36.90;30.60;;;;;;4966465;28;20472;-78
2022/05/14 12:34:16;;;;;;;;;;;36.80;30.40;;;;;;4966372;28;20380;-78
2022/05/14 12:36:49;;;;;;;5.30;1.00;;;37.10;30.50;;;;;;4972531;28;20351;-78
2022/05/14 13:41:29;;;;;;;6.80;0.80;;;35.10;30.40;;;;;;5080545;23;20054;-77
2022/05/14 13:43:58;;;;;;;7.13;0.80;;;34.90;30.00;;;;;;4957791;28;20383;-78
2022/05/14 13:46:31;;;;;;;3.05;0.60;;;34.70;29.90;;;;;;4975283;28;20045;-77
2022/05/14 13:48:57;;;;;;;5.68;1.35;;;35.30;32.30;;;;;;4975287;28;20027;-78
2022/05/14 13:51:41;;;;;;;2.40;0.60;;;36.50;31.50;;;;;;4974849;28;20018;-78
2022/05/14 13:54:10;;;;;;;5.82;1.23;;;36.10;29.30;;;;;;4981206;28;20023;-79
2022/05/14 13:56:37;;;;;;;3.13;0.82;;;37.40;29.20;;;;;;4974484;28;20058;-78
2022/05/14 13:59:06;;;;;;;3.58;0.60;;;36.60;29.20;;;;;;4973846;28;20428;-78
2022/05/14 14:01:37;;;;;;;6.90;1.00;;;37.70;29.80;;;;;;4974452;28;20093;-78
2022/05/14 14:04:12;;;;;;;5.55;1.02;;;37.50;30.50;;;;;;4974474;28;20022;-78
2022/05/14 14:06:38;;;;;;;5.18;1.00;;;36.60;28.60;;;;;;4974555;28;20110;-77
2022/05/14 14:09:05;;;;;;;4.97;0.85;;;36.50;30.50;;;;;;4973723;28;20021;-78
2022/05/14 14:11:32;;;;;;;3.15;1.05;;;36.10;29.40;;;;;;4963626;28;20070;-78
2022/05/14 14:13:58;;;;;;;2.38;0.95;;;35.50;30.40;;;;;;4969715;28;20027;-78
2022/05/14 14:16:23;;;;;;;3.83;0.90;;;36.10;30.30;;;;;;4967956;28;20094;-77
2022/05/14 14:18:49;;;;;;;4.70;0.98;;;36.80;30.30;;;;;;4973024;28;20467;-77
2022/05/14 14:21:16;;;;;;;2.25;0.65;;;36.40;29.60;;;;;;4973233;28;20069;-77
2022/05/14 14:23:46;;;;;;;5.00;0.90;;;37.40;28.70;;;;;;4973951;28;20496;-78
2022/05/14 14:26:12;;;;;;;5.38;1.10;;;38.00;27.90;;;;;;4974133;28;20522;-77
2022/05/14 14:28:38;;;;;;;3.80;0.90;;;38.10;29.20;;;;;;4974128;28;20031;-77
2022/05/14 14:31:05;;;;;;;4.30;1.38;;;38.30;29.30;;;;;;4974564;28;20468;-77
2022/05/14 14:33:33;;;;;;;4.88;1.02;;;37.50;28.70;;;;;;4974298;28;20045;-77
2022/05/14 14:35:59;;;;;;;7.28;1.00;;;36.40;29.70;;;;;;4981071;28;20057;-78
2022/05/14 14:38:25;;;;;;;3.22;0.73;;;36.80;29.60;;;;;;4974226;28;20492;-77
2022/05/14 14:40:51;;;;;;;4.95;1.17;;;36.20;29.20;;;;;;4956450;23;20039;-81
2022/05/14 14:43:17;;;;;;;4.28;1.05;;;34.70;30.50;;;;;;4950092;28;20481;-81
2022/05/14 14:45:44;;;;;;;3.13;1.08;;;35.50;30.30;;;;;;4935356;29;20098;-81
2022/05/14 14:48:12;;;;;;;3.20;0.90;;;35.80;29.70;;;;;;4934238;29;20030;-80
2022/05/14 14:50:39;;;;;;;3.70;1.00;;;35.40;30.20;;;;;;4935487;29;20358;-80
2022/05/14 14:53:05;;;;;;;5.50;0.85;;;34.40;31.60;;;;;;4935215;29;20030;-80
2022/05/14 14:55:31;;;;;;;5.40;1.00;;;35.90;32.30;;;;;;4941642;29;20106;-80
2022/05/14 14:57:57;;;;;;;2.67;0.85;;;35.70;29.20;;;;;;4935546;29;20019;-80
2022/05/14 15:00:24;;;;;;;3.10;0.98;;;35.00;31.60;;;;;;4935318;29;20051;-80
2022/05/14 15:02:59;;;;;;;7.15;1.00;;;36.00;31.60;;;;;;4935386;29;20056;-81
2022/05/14 15:05:34;;;;;;;5.10;1.33;;;36.90;29.10;;;;;;4935198;29;20525;-81
2022/05/14 15:08:02;;;;;;;4.35;1.20;;;37.00;28.50;;;;;;4935254;29;20026;-81
2022/05/14 15:10:29;;;;;;;5.18;0.70;;;36.20;28.60;;;;;;4935013;29;20055;-80
2022/05/14 15:12:57;;;;;;;2.20;1.13;;;36.40;30.30;;;;;;4934408;29;20477;-82
2022/05/14 15:15:22;;;;;;;4.03;0.80;;;35.50;30.30;;;;;;4946925;28;20059;-80
2022/05/14 15:17:48;;;;;;;1.60;0.90;;;35.60;29.20;;;;;;4934569;29;20059;-79
2022/05/14 15:20:14;;;;;;;2.17;0.75;;;35.70;29.30;;;;;;4934030;29;20050;-80
2022/05/14 15:22:40;;;;;;;3.75;0.55;;;34.10;30.80;;;;;;4934045;29;20433;-79
2022/05/14 15:25:08;;;;;;;3.03;1.05;;;33.40;33.40;;;;;;4928102;29;20447;-81
2022/05/14 15:27:34;;;;;;;6.13;1.00;;;33.80;32.20;;;;;;4934645;29;20038;-83
2022/05/14 15:30:00;;;;;;;6.90;0.85;;;34.30;32.80;;;;;;4932668;29;20540;-86
2022/05/14 15:32:27;;;;;;;5.35;1.00;;;33.70;32.30;;;;;;4933480;29;20031;-88
2022/05/14 15:34:53;;;;;;;3.38;0.80;;;34.10;33.40;;;;;;4948397;28;20103;-89
2022/05/14 15:37:19;;;;;;;4.03;0.88;;;33.70;31.60;;;;;;4932970;29;20062;-85
2022/05/14 16:41:54;;;;;;;7.22;2.30;;;21.30;57.40;;;;;;4922340;29;20039;-78
2022/05/14 16:44:20;;;;;;;8.40;1.52;;;21.20;55.20;;;;;;4921287;29;20020;-79
2022/05/14 16:46:45;;;;;;;3.75;1.02;;;20.90;57.20;;;;;;4926453;29;20027;-79
2022/05/14 16:49:12;;;;;;;4.63;1.45;;;20.90;58.60;;;;;;4921891;29;20030;-79
2022/05/14 16:51:37;;;;;;;5.65;1.90;;;20.90;57.40;;;;;;4919967;29;20024;-78
2022/05/14 16:54:04;;;;;;;5.35;1.23;;;20.80;61.00;;;;;;4926078;28;20108;-80
2022/05/14 16:56:30;;;;;;;5.60;1.40;;;20.70;59.90;;;;;;4923180;28;20039;-80
2022/05/14 16:58:56;;;;;;;4.82;1.17;;;20.60;59.50;;;;;;4933390;29;20020;-80
2022/05/14 17:01:22;;;;;;;4.40;1.33;;;20.30;60.60;;;;;;4933637;29;20036;-81
2022/05/14 17:03:48;;;;;;;4.95;1.30;;;20.30;63.30;;;;;;4933714;29;20129;-82
2022/05/14 17:06:14;;;;;;;3.50;1.52;;;20.50;62.30;;;;;;4931193;29;20031;-81
2022/05/14 17:08:41;;;;;;;3.33;1.30;;;20.70;63.30;;;;;;4933052;29;20109;-81
2022/05/14 17:11:06;;;;;;;4.57;1.23;;;20.80;61.30;;;;;;4933011;29;20520;-78
2022/05/14 17:13:34;;;;;;;4.93;1.27;;;20.90;62.60;;;;;;4933922;29;20035;-78
2022/05/14 17:16:00;;;;;;;7.07;1.60;;;20.90;61.10;;;;;;4932617;29;20094;-79
2022/05/14 17:18:26;;;;;;;6.55;1.63;;;20.70;63.90;;;;;;4933243;29;20028;-78
2022/05/14 17:20:53;;;;;;;3.40;1.35;;;20.20;61.20;;;;;;4932651;29;20437;-80
2022/05/14 17:23:19;;;;;;;8.25;2.20;;;19.70;64.70;;;;;;4928957;29;20042;-80
2022/05/14 17:25:45;;;;;;;6.03;4.78;;;19.30;65.50;;;;;;4934438;29;20031;-80
2022/05/14 17:28:11;;;;;;;12.35;1.88;;;18.90;67.70;;;;;;4936338;29;20119;-79
2022/05/14 17:30:37;;;;;;;3.60;2.08;;;18.90;69.50;;;;;;4935064;29;20424;-79
2022/05/14 17:33:05;;;;;;;4.10;1.40;;;18.80;73.00;;;;;;4936543;29;20020;-79
2022/05/14 17:35:32;;;;;;;4.72;2.55;;;18.60;71.50;;;;;;4919148;29;20047;-79
2022/05/14 18:41:44;;;;;;;4.13;1.27;;;16.00;99.90;;;;;;5108181;23;20081;-79
2022/05/14 18:44:13;;;;;;;4.43;1.75;;;15.90;99.90;;;;;;5012227;28;20471;-79
2022/05/14 18:46:39;;;;;;;3.55;1.55;;;15.80;99.90;;;;;;5012119;28;20014;-78
2022/05/14 18:49:04;;;;;;;4.70;1.42;;;15.60;99.90;;;;;;5012983;28;20092;-79
2022/05/14 18:51:30;;;;;;;4.50;1.38;;;15.50;99.90;;;;;;4995512;28;20430;-80
2022/05/14 18:53:56;;;;;;;4.20;1.50;;;15.30;99.90;;;;;;4992817;28;20419;-80
2022/05/14 18:56:22;;;;;;;5.32;1.42;;;15.20;99.90;;;;;;4991872;28;20034;-79
2022/05/14 18:58:48;;;;;;;3.47;1.65;;;15.10;99.90;;;;;;4991550;28;20045;-80
2022/05/14 19:01:14;;;;;;;4.18;1.25;;;15.00;99.90;;;;;;4974850;28;20471;-80
2022/05/14 19:03:40;;;;;;;4.95;1.88;;;14.90;99.90;;;;;;4993128;28;20029;-79
2022/05/14 19:08:50;;;;;;;6.47;1.80;;;14.80;99.90;;;;;;4987438;28;20028;-79
2022/05/14 19:11:16;;;;;;;6.68;2.35;;;14.70;99.90;;;;;;4991991;28;20026;-78
2022/05/14 19:13:42;;;;;;;6.25;2.42;;;14.60;99.90;;;;;;4992243;28;20026;-78
2022/05/14 19:16:09;;;;;;;4.10;1.65;;;14.50;99.90;;;;;;4992081;28;20038;-78
2022/05/14 19:18:37;;;;;;;5.30;2.22;;;14.30;99.90;;;;;;4992545;28;20148;-79
2022/05/14 19:21:04;;;;;;;8.13;2.38;;;14.20;99.90;;;;;;4989799;28;20022;-79
2022/05/14 19:23:29;;;;;;;2.55;1.42;;;14.10;99.90;;;;;;4991421;28;20704;-79
2022/05/14 19:25:56;;;;;;;6.45;1.92;;;14.00;99.90;;;;;;4992260;28;20105;-79
2022/05/14 19:28:23;;;;;;;4.90;1.70;;;14.00;99.90;;;;;;4974863;28;20071;-79
2022/05/14 19:30:49;;;;;;;5.72;1.85;;;13.90;99.90;;;;;;4992552;28;20027;-79
2022/05/14 19:33:15;;;;;;;4.97;2.25;;;13.80;99.90;;;;;;4992460;28;20026;-79
2022/05/14 19:35:51;;;;;;;3.70;1.48;;;13.80;99.90;;;;;;4992556;28;20587;-79
2022/05/14 19:38:21;;;;;;;3.35;1.48;;;13.70;99.90;;;;;;4992601;28;20026;-79
2022/05/14 19:40:52;;;;;;;3.63;1.48;;;13.60;99.90;;;;;;4994488;23;20472;-79
2022/05/14 19:43:26;;;;;;;3.40;1.73;;;13.50;99.90;;;;;;4949200;28;20459;-82
2022/05/14 19:45:56;;;;;;;8.02;2.00;;;13.30;99.90;;;;;;4953106;28;20027;-84
2022/05/14 19:48:22;;;;;;;8.15;2.25;;;13.20;99.90;;;;;;4956007;28;20133;-87
2022/05/14 19:50:48;;;;;;;7.00;2.42;;;13.10;99.90;;;;;;4950579;28;20179;-83
2022/05/14 19:53:17;;;;;;;6.00;2.20;;;13.10;99.90;;;;;;4953718;28;20090;-85
2022/05/14 19:55:42;;;;;;;4.10;2.20;;;12.90;99.90;;;;;;4961302;28;20035;-83
2022/05/14 19:58:11;;;;;;;3.75;1.67;;;12.80;99.90;;;;;;4970099;28;20464;-84
2022/05/14 20:00:39;;;;;;;5.88;2.08;;;12.60;99.90;;;;;;4965037;28;20510;-84
2022/05/14 20:03:08;;;;;;;6.03;2.22;;;12.60;99.90;;;;;;4961040;28;20138;-83
2022/05/14 20:05:39;;;;;;;3.92;2.15;;;12.50;99.90;;;;;;4970384;28;20023;-83
2022/05/14 20:08:04;;;;;;;9.65;4.03;;;12.40;99.90;;;;;;4952491;28;20057;-82
2022/05/14 20:10:30;;;;;;;9.82;4.70;;;12.40;99.90;;;;;;4954064;28;20649;-84
2022/05/14 20:12:57;;;;;;;6.32;2.42;;;12.40;99.90;;;;;;4949072;28;20084;-84
2022/05/14 20:15:26;;;;;;;5.15;2.90;;;12.40;99.90;;;;;;4951628;28;20051;-87
2022/05/14 20:20:48;;;;;;;10.05;4.90;;;12.30;99.90;;;;;;4964558;28;20049;-84
2022/05/14 20:23:16;;;;;;;6.22;3.72;;;12.30;99.90;;;;;;4945567;28;20066;-82
2022/05/14 20:25:43;;;;;;;4.07;2.20;;;12.10;99.90;;;;;;4947787;28;20101;-82
2022/05/14 20:28:10;;;;;;;7.95;3.38;;;12.00;99.90;;;;;;4964246;28;20070;-81
2022/05/14 20:30:37;;;;;;;5.50;3.00;;;11.90;99.90;;;;;;4963009;28;20023;-81
2022/05/14 20:33:03;;;;;;;3.67;2.70;;;11.90;99.90;;;;;;4951631;28;20476;-84
2022/05/14 20:35:29;;;;;;;5.22;2.40;;;11.80;99.90;;;;;;4971438;28;20039;-84
2022/05/14 20:37:55;;;;;;;5.82;3.30;;;11.80;99.90;;;;;;4959249;28;20023;-84
2022/05/14 20:40:21;;;;;;;6.78;2.47;;;11.70;99.90;;;;;;4966653;23;20109;-81
2022/05/14 20:42:47;;;;;;;4.78;2.50;;;11.70;99.90;;;;;;4982375;28;20431;-82
2022/05/14 20:45:13;;;;;;;8.48;3.45;;;11.70;99.90;;;;;;4983602;28;20021;-80
2022/05/14 20:47:39;;;;;;;8.23;3.08;;;11.50;99.90;;;;;;4981118;28;20482;-83
2022/05/14 20:50:10;;;;;;;3.05;2.40;;;11.40;99.90;;;;;;4981295;28;20026;-84
2022/05/14 20:52:40;;;;;;;9.23;5.47;;;11.40;99.90;;;;;;4978089;28;20146;-80
2022/05/14 20:55:07;;;;;;;7.65;3.03;;;11.50;99.90;;;;;;4980875;28;20077;-82
2022/05/14 20:57:33;;;;;;;4.90;2.83;;;11.50;99.90;;;;;;4979689;28;20097;-82
2022/05/14 20:59:59;;;;;;;6.72;2.60;;;11.50;99.90;;;;;;4974928;28;20455;-82
2022/05/14 21:02:24;;;;;;;6.88;2.58;;;11.50;99.90;;;;;;4960691;28;20077;-81
2022/05/14 21:04:51;;;;;;;7.55;3.72;;;11.50;99.90;;;;;;4970807;28;20447;-79
2022/05/14 21:07:17;;;;;;;5.18;2.45;;;11.50;99.90;;;;;;4964836;28;20034;-82
2022/05/14 21:09:43;;;;;;;3.60;2.10;;;11.40;99.90;;;;;;4965624;28;20027;-81
2022/05/14 21:12:10;;;;;;;5.53;3.15;;;11.30;99.90;;;;;;4969313;28;20081;-81
2022/05/14 21:14:37;;;;;;;6.53;2.55;;;11.20;99.90;;;;;;4958015;28;20035;-85
2022/05/14 21:17:03;;;;;;;8.00;3.00;;;11.10;99.90;;;;;;4957977;28;20038;-81
2022/05/14 21:19:30;;;;;;;9.27;4.15;;;11.10;99.90;;;;;;4945619;28;20061;-85
2022/05/14 21:21:55;;;;;;;7.07;3.65;;;11.00;99.90;;;;;;4964507;28;20037;-84
2022/05/14 21:24:23;;;;;;;6.80;2.92;;;10.90;99.90;;;;;;4969420;28;20491;-85
2022/05/14 21:26:49;;;;;;;7.40;3.50;;;11.00;99.90;;;;;;4966605;28;20023;-84
2022/05/14 21:29:15;;;;;;;8.00;4.38;;;11.00;99.90;;;;;;4962614;28;20077;-82
2022/05/14 21:31:41;;;;;;;6.00;3.58;;;11.10;99.90;;;;;;4963042;28;20026;-84
2022/05/14 21:39:37;;;;;;;11.60;3.70;;;11.30;99.90;;;;;;4959848;28;20029;-83
2022/05/14 21:42:04;;;;;;;11.60;4.18;;;11.30;99.90;;;;;;4955685;28;20034;-83
2022/05/14 21:44:30;;;;;;;6.90;3.90;;;11.30;99.90;;;;;;4930522;28;20814;-83
2022/05/14 21:46:57;;;;;;;8.88;4.03;;;11.40;99.90;;;;;;4955393;28;20600;-82
2022/05/14 21:49:22;;;;;;;5.63;3.33;;;11.40;99.90;;;;;;4954121;28;20031;-87
2022/05/14 21:51:48;;;;;;;7.72;4.00;;;11.50;99.90;;;;;;4946349;28;20085;-86
2022/05/14 21:54:15;;;;;;;15.30;4.03;;;11.60;99.90;;;;;;4950035;28;20440;-84
2022/05/14 21:56:42;;;;;;;6.80;3.63;;;11.60;99.90;;;;;;4950666;28;20054;-85
2022/05/14 21:59:11;;;;;;;5.03;3.08;;;11.60;99.90;;;;;;4951054;28;20254;-77
2022/05/14 22:01:57;;;;;;;4.53;3.35;;;11.50;99.90;;;;;;4951641;28;20114;-83
2022/05/14 22:04:22;;;;;;;6.55;2.90;;;11.60;99.90;;;;;;4950647;28;20393;-82
2022/05/14 22:06:48;;;;;;;5.30;3.20;;;11.50;99.90;;;;;;4947765;28;20125;-84
2022/05/14 22:09:14;;;;;;;4.85;2.67;;;11.50;99.90;;;;;;4944113;28;20031;-82
2022/05/14 22:11:40;;;;;;;6.65;3.25;;;11.50;99.90;;;;;;4942822;28;20345;-81
2022/05/14 22:14:06;;;;;;;8.55;2.90;;;11.50;99.90;;;;;;4944273;28;20065;-80
2022/05/14 22:16:32;;;;;;;8.35;2.65;;;11.50;99.90;;;;;;4941036;28;20566;-79
2022/05/14 22:18:57;;;;;;;6.80;3.08;;;11.50;99.90;;;;;;4955197;28;20029;-80
2022/05/14 22:21:23;;;;;;;5.78;3.28;;;11.50;99.90;;;;;;4973168;28;20049;-80
2022/05/14 22:23:49;;;;;;;6.35;2.90;;;11.60;99.90;;;;;;4991488;28;20426;-80
2022/05/14 22:26:15;;;;;;;7.15;3.03;;;11.60;99.90;;;;;;4985626;28;20072;-80
2022/05/14 22:28:40;;;;;;;6.32;2.80;;;11.60;99.90;;;;;;4999844;28;20627;-79
2022/05/14 22:31:06;;;;;;;5.97;3.53;;;11.60;99.90;;;;;;4974263;28;20068;-80
2022/05/14 22:33:33;;;;;;;7.10;3.00;;;11.60;99.90;;;;;;4975169;28;20057;-79
2022/05/14 22:36:00;;;;;;;5.45;3.28;;;11.60;99.90;;;;;;4992078;28;20026;-79